createdAt,value
2024-01-31T00:00:11.064Z,1.33
2024-01-31T00:02:39.709Z,1.30
2024-01-31T00:05:08.817Z,1.40
2024-01-31T00:07:37.370Z,1.08
2024-01-31T00:10:07.947Z,0.95
2024-01-31T00:12:36.548Z,1.27
2024-01-31T00:15:05.316Z,1.35
2024-01-31T00:17:33.760Z,1.08
2024-01-31T00:20:02.283Z,1.50
2024-01-31T00:22:30.870Z,1.30
2024-01-31T00:24:59.344Z,0.90
2024-01-31T00:27:29.214Z,1.42
2024-01-31T00:29:57.628Z,1.40
2024-01-31T00:32:26.689Z,1.40
2024-01-31T00:34:55.196Z,1.15
2024-01-31T00:37:23.629Z,1.58
2024-01-31T00:39:52.085Z,1.73
2024-01-31T00:42:20.533Z,1.88
2024-01-31T00:44:50.494Z,1.90
2024-01-31T00:47:19.173Z,1.75
2024-01-31T00:49:47.823Z,1.55
2024-01-31T00:52:17.733Z,1.48
2024-01-31T00:54:48.613Z,1.50
2024-01-31T00:57:17.242Z,2.17
2024-01-31T00:59:45.687Z,1.42
2024-01-31T01:02:17.482Z,1.23
2024-01-31T01:04:46.008Z,0.95
2024-01-31T01:07:15.160Z,1.25
2024-01-31T01:09:43.536Z,1.42
2024-01-31T01:12:12.783Z,1.00
2024-01-31T01:14:41.215Z,1.27
2024-01-31T01:17:09.683Z,1.13
2024-01-31T01:19:39.587Z,1.15
2024-01-31T01:22:08.232Z,1.50
2024-01-31T01:24:36.673Z,1.30
2024-01-31T01:27:05.412Z,0.80
2024-01-31T01:29:33.865Z,1.00
2024-01-31T01:32:02.309Z,1.67
2024-01-31T01:34:30.856Z,1.35
2024-01-31T01:37:00.752Z,1.30
2024-01-31T01:39:29.320Z,1.55
2024-01-31T01:42:00.571Z,1.42
2024-01-31T01:44:32.391Z,1.10
2024-01-31T01:47:01.678Z,0.80
2024-01-31T01:49:33.608Z,1.20
2024-01-31T01:52:04.005Z,1.08
2024-01-31T01:54:33.576Z,1.85
2024-01-31T01:57:02.384Z,1.55
2024-01-31T01:59:30.907Z,1.20
2024-01-31T02:02:00.915Z,1.27
2024-01-31T02:04:31.369Z,1.10
2024-01-31T02:07:00.437Z,1.30
2024-01-31T02:09:30.881Z,1.45
2024-01-31T02:11:59.392Z,1.33
2024-01-31T02:14:28.162Z,1.13
2024-01-31T02:16:58.646Z,1.08
2024-01-31T02:19:27.347Z,1.40
2024-01-31T02:22:02.112Z,1.42
2024-01-31T02:24:31.992Z,1.40
2024-01-31T02:27:00.587Z,1.10
2024-01-31T02:29:29.138Z,1.17
2024-01-31T02:31:57.540Z,2.22
2024-01-31T02:34:26.843Z,1.25
2024-01-31T02:36:55.372Z,1.00
2024-01-31T02:39:24.030Z,1.70
2024-01-31T02:41:54.307Z,1.70
2024-01-31T02:44:24.206Z,1.20
2024-01-31T02:46:52.662Z,1.38
2024-01-31T02:49:21.364Z,0.98
2024-01-31T02:51:49.839Z,1.00
2024-01-31T02:54:18.306Z,1.13
2024-01-31T02:56:46.698Z,1.30
2024-01-31T02:59:16.560Z,1.40
2024-01-31T03:01:48.615Z,1.38
2024-01-31T03:04:17.206Z,1.40
2024-01-31T03:06:45.926Z,1.55
2024-01-31T03:09:14.473Z,2.03
2024-01-31T03:11:42.924Z,1.95
2024-01-31T03:14:11.305Z,1.00
2024-01-31T03:16:41.681Z,1.48
2024-01-31T03:19:10.554Z,1.23
2024-01-31T03:21:39.661Z,1.20
2024-01-31T03:24:08.195Z,1.27
2024-01-31T03:26:36.582Z,1.08
2024-01-31T03:29:05.019Z,0.90
2024-01-31T03:31:33.423Z,0.75
2024-01-31T03:34:03.512Z,1.38
2024-01-31T03:36:32.019Z,1.20
2024-01-31T03:39:01.069Z,1.33
2024-01-31T03:41:29.808Z,1.15
2024-01-31T03:43:58.481Z,0.98
2024-01-31T03:46:26.997Z,1.00
2024-01-31T03:48:55.541Z,0.98
2024-01-31T03:51:26.600Z,0.90
2024-01-31T03:53:55.035Z,1.05
2024-01-31T03:56:23.439Z,0.77
2024-01-31T03:58:51.926Z,1.30
2024-01-31T04:01:20.543Z,1.05
2024-01-31T04:03:49.023Z,1.52
2024-01-31T04:06:17.711Z,1.08
2024-01-31T04:08:47.681Z,1.27
2024-01-31T04:11:16.520Z,1.60
2024-01-31T04:13:48.336Z,1.95
2024-01-31T04:16:17.963Z,1.13
2024-01-31T04:18:46.554Z,1.83
2024-01-31T04:21:22.176Z,1.65
2024-01-31T04:23:52.332Z,1.27
2024-01-31T04:26:20.778Z,1.15
2024-01-31T04:28:49.551Z,1.27
2024-01-31T04:31:18.523Z,1.10
2024-01-31T04:33:47.097Z,1.60
2024-01-31T04:36:15.599Z,1.55
2024-01-31T04:38:44.166Z,1.75
2024-01-31T04:41:14.068Z,2.25
2024-01-31T04:43:43.521Z,2.05
2024-01-31T04:46:15.502Z,1.65
2024-01-31T04:48:44.251Z,1.63
2024-01-31T04:51:12.837Z,1.80
2024-01-31T04:53:42.742Z,1.65
2024-01-31T04:56:11.209Z,1.80
2024-01-31T04:58:41.852Z,1.17
2024-01-31T05:01:10.478Z,1.30
2024-01-31T05:03:39.021Z,1.02
2024-01-31T05:06:08.068Z,1.45
2024-01-31T05:08:36.480Z,1.10
2024-01-31T05:11:05.044Z,1.15
2024-01-31T05:13:33.598Z,1.20
2024-01-31T05:16:03.489Z,1.13
2024-01-31T05:18:32.022Z,1.23
2024-01-31T05:21:02.290Z,0.90
2024-01-31T05:23:30.940Z,1.20
2024-01-31T05:25:59.367Z,1.10
2024-01-31T05:28:27.799Z,0.85
2024-01-31T05:30:56.269Z,1.27
2024-01-31T05:33:26.208Z,1.10
2024-01-31T05:35:54.802Z,1.30
2024-01-31T05:38:23.429Z,0.85
2024-01-31T05:40:51.938Z,0.80
2024-01-31T05:43:20.505Z,0.73
2024-01-31T05:45:49.029Z,1.67
2024-01-31T05:48:17.731Z,1.05
2024-01-31T05:50:47.806Z,1.25
2024-01-31T05:53:16.335Z,0.95
2024-01-31T05:55:44.759Z,1.20
2024-01-31T05:58:13.461Z,1.65
2024-01-31T06:00:42.491Z,1.02
2024-01-31T06:03:11.063Z,1.48
2024-01-31T06:05:39.639Z,1.15
2024-01-31T06:08:09.637Z,1.30
2024-01-31T06:10:38.110Z,1.00
2024-01-31T06:13:06.854Z,0.77
2024-01-31T06:15:36.050Z,1.30
2024-01-31T06:18:04.562Z,1.60
2024-01-31T06:20:33.092Z,1.38
2024-01-31T06:23:01.524Z,1.50
2024-01-31T06:25:31.572Z,1.27
2024-01-31T06:28:00.105Z,1.67
2024-01-31T06:30:32.987Z,0.90
2024-01-31T06:33:07.647Z,1.20
2024-01-31T06:35:36.650Z,0.73
2024-01-31T06:38:05.401Z,1.17
2024-01-31T06:40:35.403Z,1.10
2024-01-31T06:43:04.088Z,1.00
2024-01-31T06:45:32.466Z,1.03
2024-01-31T06:48:02.411Z,0.90
2024-01-31T06:50:30.898Z,0.70
2024-01-31T06:52:59.348Z,1.10
2024-01-31T06:55:28.144Z,0.90
2024-01-31T06:57:58.009Z,0.93
2024-01-31T07:00:26.492Z,1.00
2024-01-31T07:02:56.467Z,0.83
2024-01-31T07:05:25.059Z,1.13
2024-01-31T07:07:53.523Z,0.93
2024-01-31T07:10:21.952Z,1.00
2024-01-31T07:12:51.791Z,0.73
2024-01-31T07:15:22.187Z,1.20
2024-01-31T07:17:50.723Z,1.13
2024-01-31T07:20:19.690Z,1.30
2024-01-31T07:22:48.196Z,1.10
2024-01-31T07:25:17.900Z,1.10
2024-01-31T07:27:46.489Z,0.77
2024-01-31T07:30:15.124Z,1.17
2024-01-31T07:32:45.298Z,1.20
2024-01-31T07:35:13.900Z,0.87
2024-01-31T07:37:43.075Z,1.23
2024-01-31T07:40:12.179Z,1.13
2024-01-31T07:42:41.178Z,1.20
2024-01-31T07:45:10.424Z,1.40
2024-01-31T07:47:40.086Z,1.20
2024-01-31T07:50:10.745Z,1.30
2024-01-31T07:52:39.316Z,1.30
2024-01-31T07:55:09.471Z,1.73
2024-01-31T07:57:37.961Z,1.33
2024-01-31T08:00:07.851Z,1.02
2024-01-31T08:02:36.419Z,1.20
2024-01-31T08:05:05.083Z,1.77
2024-01-31T08:07:36.987Z,1.20
2024-01-31T08:10:07.555Z,1.65
2024-01-31T08:12:36.074Z,1.20
2024-01-31T08:15:08.255Z,1.55
2024-01-31T08:17:36.785Z,1.55
2024-01-31T08:20:06.145Z,1.48
2024-01-31T08:22:38.006Z,1.20
2024-01-31T08:25:09.189Z,1.23
2024-01-31T08:27:38.971Z,1.27
2024-01-31T08:30:08.899Z,1.53
2024-01-31T08:32:37.283Z,1.25
2024-01-31T08:35:06.399Z,1.17
2024-01-31T08:37:36.471Z,1.67
2024-01-31T08:42:34.934Z,1.98
2024-01-31T08:45:03.413Z,1.80
2024-01-31T08:47:32.150Z,1.83
2024-01-31T08:50:00.656Z,1.50
2024-01-31T08:52:29.401Z,2.63
2024-01-31T08:54:59.276Z,1.65
2024-01-31T08:57:27.828Z,1.20
2024-01-31T08:59:56.209Z,1.00
2024-01-31T09:02:24.707Z,1.10
2024-01-31T09:04:53.202Z,1.60
2024-01-31T09:07:21.795Z,1.55
2024-01-31T09:09:50.622Z,1.70
2024-01-31T09:12:20.684Z,1.08
2024-01-31T09:14:49.069Z,1.50
2024-01-31T09:17:17.536Z,1.58
2024-01-31T09:19:47.689Z,2.00
2024-01-31T09:22:16.543Z,1.45
2024-01-31T09:24:45.174Z,1.63
2024-01-31T09:27:13.809Z,1.63
2024-01-31T09:29:44.621Z,1.40
2024-01-31T09:32:13.401Z,1.77
2024-01-31T09:34:42.024Z,1.13
2024-01-31T09:37:10.637Z,1.20
2024-01-31T09:39:38.997Z,1.60
2024-01-31T09:42:08.289Z,1.45
2024-01-31T09:44:37.253Z,1.13
2024-01-31T09:47:09.190Z,1.40
2024-01-31T09:49:37.747Z,1.90
2024-01-31T09:52:08.116Z,1.70
2024-01-31T09:54:36.817Z,2.15
2024-01-31T09:57:05.415Z,2.30
2024-01-31T09:59:33.883Z,2.25
2024-01-31T10:02:03.902Z,2.17
2024-01-31T10:04:33.861Z,2.58
2024-01-31T10:07:02.363Z,2.47
2024-01-31T10:09:31.031Z,2.58
2024-01-31T10:11:59.544Z,2.75
2024-01-31T10:14:28.796Z,2.33
2024-01-31T10:16:58.222Z,2.83
2024-01-31T10:19:26.789Z,2.72
2024-01-31T10:22:00.124Z,2.67
2024-01-31T10:24:29.375Z,2.45
2024-01-31T10:26:58.008Z,3.20
2024-01-31T10:29:26.663Z,2.78
2024-01-31T10:31:56.131Z,3.00
2024-01-31T10:34:32.954Z,3.05
2024-01-31T10:37:46.383Z,3.13
2024-01-31T10:40:00.968Z,3.72
2024-01-31T10:42:29.560Z,3.58
2024-01-31T10:45:00.220Z,3.58
2024-01-31T10:47:28.921Z,4.00
2024-01-31T10:49:59.749Z,3.60
2024-01-31T10:52:33.747Z,3.75
2024-01-31T10:55:07.945Z,3.53
2024-01-31T10:57:39.016Z,3.60
2024-01-31T11:00:11.197Z,3.97
2024-01-31T11:02:40.909Z,3.70
2024-01-31T11:05:09.939Z,3.75
2024-01-31T11:07:47.892Z,4.30
2024-01-31T11:10:18.901Z,4.20
2024-01-31T11:12:59.197Z,4.07
2024-01-31T11:15:31.812Z,4.40
2024-01-31T11:18:08.222Z,4.85
2024-01-31T11:20:38.557Z,4.20
2024-01-31T11:23:09.235Z,3.97
2024-01-31T11:25:40.073Z,4.07
2024-01-31T11:28:09.116Z,4.60
2024-01-31T11:30:37.835Z,3.83
2024-01-31T11:33:06.692Z,4.38
2024-01-31T11:35:35.496Z,4.32
2024-01-31T11:38:04.264Z,4.25
2024-01-31T11:40:34.131Z,3.92
2024-01-31T11:43:02.690Z,4.00
2024-01-31T11:45:31.258Z,4.05
2024-01-31T11:48:00.937Z,4.22
2024-01-31T11:50:29.837Z,3.65
2024-01-31T11:52:59.009Z,3.38
2024-01-31T11:55:31.115Z,4.00
2024-01-31T11:58:01.196Z,3.90
2024-01-31T12:00:30.736Z,3.80
2024-01-31T12:02:59.271Z,3.72
2024-01-31T12:05:28.017Z,3.95
2024-01-31T12:08:00.381Z,4.43
2024-01-31T12:10:29.713Z,4.07
2024-01-31T12:13:00.741Z,4.22
2024-01-31T12:15:32.417Z,4.40
2024-01-31T12:18:02.493Z,3.92
2024-01-31T12:20:32.651Z,4.47
2024-01-31T12:23:01.274Z,4.32
2024-01-31T12:25:29.677Z,4.10
2024-01-31T12:27:58.257Z,4.60
2024-01-31T12:30:26.795Z,4.55
2024-01-31T12:32:56.758Z,4.63
2024-01-31T12:35:25.280Z,4.72
2024-01-31T12:37:53.914Z,4.75
2024-01-31T12:40:22.333Z,4.30
2024-01-31T12:42:51.383Z,4.85
2024-01-31T12:45:20.171Z,4.45
2024-01-31T12:47:50.884Z,4.75
2024-01-31T12:50:21.079Z,5.10
2024-01-31T12:52:49.767Z,5.10
2024-01-31T12:55:18.307Z,5.30
2024-01-31T12:57:46.786Z,5.03
2024-01-31T13:00:16.268Z,5.57
2024-01-31T13:02:44.889Z,6.03
2024-01-31T13:05:14.673Z,5.90
2024-01-31T13:07:45.136Z,5.75
2024-01-31T13:10:14.078Z,5.53
2024-01-31T13:12:42.537Z,5.50
2024-01-31T13:15:11.241Z,5.70
2024-01-31T13:17:39.777Z,4.70
2024-01-31T13:20:10.602Z,4.90
2024-01-31T13:22:39.148Z,5.05
2024-01-31T13:25:10.078Z,5.05
2024-01-31T13:27:38.487Z,5.20
2024-01-31T13:30:11.810Z,4.57
2024-01-31T13:32:41.812Z,5.00
2024-01-31T13:35:10.932Z,5.20
2024-01-31T13:37:39.398Z,4.30
2024-01-31T13:40:11.631Z,5.25
2024-01-31T13:42:40.206Z,4.57
2024-01-31T13:45:09.447Z,4.53
2024-01-31T13:47:38.595Z,4.60
2024-01-31T13:50:08.363Z,4.90
2024-01-31T13:52:36.738Z,5.25
2024-01-31T13:55:05.497Z,4.93
2024-01-31T13:57:35.352Z,5.38
2024-01-31T14:00:07.696Z,5.10
2024-01-31T14:02:37.751Z,5.53
2024-01-31T14:05:06.488Z,6.25
2024-01-31T14:07:34.968Z,6.20
2024-01-31T14:10:03.406Z,6.65
2024-01-31T14:12:31.955Z,6.70
2024-01-31T14:15:02.367Z,6.47
2024-01-31T14:17:31.201Z,6.88
2024-01-31T14:19:59.758Z,6.22
2024-01-31T14:22:35.829Z,6.93
2024-01-31T14:25:16.826Z,6.93
2024-01-31T14:27:45.336Z,6.80
2024-01-31T14:30:15.949Z,6.50
2024-01-31T14:32:44.499Z,6.05
2024-01-31T14:35:12.920Z,5.80
2024-01-31T14:37:41.907Z,6.13
2024-01-31T14:40:11.158Z,5.68
2024-01-31T14:42:39.627Z,5.38
2024-01-31T14:45:10.932Z,6.05
2024-01-31T14:47:40.881Z,5.68
2024-01-31T14:50:09.785Z,5.93
2024-01-31T14:52:38.348Z,5.90
2024-01-31T14:55:07.887Z,5.80
2024-01-31T14:57:37.435Z,5.78
2024-01-31T15:00:09.387Z,5.85
2024-01-31T15:02:38.125Z,6.00
2024-01-31T15:05:08.902Z,6.40
2024-01-31T15:07:37.391Z,6.60
2024-01-31T15:10:06.483Z,6.20
2024-01-31T15:12:35.470Z,6.95
2024-01-31T15:15:04.635Z,7.07
2024-01-31T15:17:33.323Z,8.20
2024-01-31T15:20:01.920Z,7.40
2024-01-31T15:22:31.866Z,6.93
2024-01-31T15:25:00.348Z,9.73
2024-01-31T15:27:28.735Z,8.50
2024-01-31T15:29:57.326Z,8.35
2024-01-31T15:32:25.940Z,7.72
2024-01-31T15:34:57.029Z,8.27
2024-01-31T15:37:27.428Z,8.48
2024-01-31T15:39:57.290Z,7.97
2024-01-31T15:42:25.997Z,8.77
2024-01-31T15:44:54.442Z,8.45
2024-01-31T15:47:22.925Z,8.82
2024-01-31T15:49:51.495Z,8.20
2024-01-31T15:52:19.907Z,8.35
2024-01-31T15:54:48.301Z,8.90
2024-01-31T15:57:18.110Z,9.27
2024-01-31T15:59:46.592Z,8.10
2024-01-31T16:02:15.109Z,9.73
2024-01-31T16:04:43.568Z,9.20
2024-01-31T16:07:11.989Z,9.98
2024-01-31T16:09:40.405Z,9.52
2024-01-31T16:12:09.163Z,9.38
2024-01-31T16:14:40.254Z,9.32
2024-01-31T16:17:08.758Z,9.98
2024-01-31T16:19:37.702Z,11.60
2024-01-31T16:22:06.476Z,11.32
2024-01-31T16:24:34.885Z,10.25
2024-01-31T16:27:03.456Z,11.05
2024-01-31T16:29:32.039Z,10.85
2024-01-31T16:32:01.909Z,10.77
2024-01-31T16:34:30.904Z,11.15
2024-01-31T16:36:59.813Z,11.48
2024-01-31T16:39:28.292Z,11.57
2024-01-31T16:41:57.143Z,11.13
2024-01-31T16:44:25.638Z,10.48
2024-01-31T16:46:54.119Z,10.60
2024-01-31T16:49:24.007Z,10.60
2024-01-31T16:51:52.546Z,10.25
2024-01-31T16:54:21.043Z,11.82
2024-01-31T16:56:49.467Z,10.98
2024-01-31T16:59:18.049Z,11.20
2024-01-31T17:01:46.938Z,10.65
2024-01-31T17:04:15.552Z,10.48
2024-01-31T17:06:45.612Z,9.68
2024-01-31T17:09:14.089Z,9.70
2024-01-31T17:11:43.057Z,9.95
2024-01-31T17:14:11.549Z,9.20
2024-01-31T17:16:44.362Z,8.82
2024-01-31T17:19:13.078Z,9.07
2024-01-31T17:21:41.620Z,10.25
2024-01-31T17:24:11.602Z,9.45
2024-01-31T17:26:40.216Z,9.77
2024-01-31T17:29:08.732Z,10.50
2024-01-31T17:31:37.217Z,10.50
2024-01-31T17:34:05.684Z,10.90
2024-01-31T17:36:34.224Z,9.25
2024-01-31T17:39:02.767Z,9.98
2024-01-31T17:41:32.789Z,9.82
2024-01-31T17:44:01.205Z,9.73
2024-01-31T17:46:29.710Z,9.02
2024-01-31T17:48:58.247Z,8.57
2024-01-31T17:51:26.947Z,9.00
2024-01-31T17:53:55.453Z,8.20
2024-01-31T17:56:25.936Z,9.02
2024-01-31T17:58:55.919Z,8.45
2024-01-31T18:01:24.286Z,8.77
2024-01-31T18:03:52.790Z,6.78
2024-01-31T18:06:21.315Z,7.20
2024-01-31T18:08:50.027Z,7.75
2024-01-31T18:11:18.476Z,6.53
2024-01-31T18:13:51.433Z,6.50
2024-01-31T18:16:21.498Z,6.03
2024-01-31T18:18:49.916Z,5.57
2024-01-31T18:21:18.550Z,5.72
2024-01-31T18:23:47.417Z,5.88
2024-01-31T18:26:21.326Z,5.60
2024-01-31T18:28:49.771Z,5.32
2024-01-31T18:31:20.510Z,5.45
2024-01-31T18:33:50.802Z,5.00
2024-01-31T18:36:19.853Z,5.53
2024-01-31T18:38:48.433Z,5.53
2024-01-31T18:41:17.547Z,5.40
2024-01-31T18:43:46.411Z,5.82
2024-01-31T18:46:15.133Z,5.57
2024-01-31T18:48:44.224Z,5.63
2024-01-31T18:51:14.147Z,6.00
2024-01-31T18:53:43.937Z,7.05
2024-01-31T18:56:14.975Z,5.28
2024-01-31T18:58:43.704Z,4.97
2024-01-31T19:01:12.405Z,5.80
2024-01-31T19:03:41.015Z,4.95
2024-01-31T19:06:09.629Z,5.15
2024-01-31T19:08:39.645Z,4.90
2024-01-31T19:11:08.088Z,5.70
2024-01-31T19:13:36.484Z,5.80
2024-01-31T19:16:05.356Z,5.32
2024-01-31T19:18:34.622Z,4.30
2024-01-31T19:21:03.134Z,5.85
2024-01-31T19:23:31.661Z,5.07
2024-01-31T19:26:01.465Z,4.55
2024-01-31T19:28:31.619Z,5.57
2024-01-31T19:31:00.260Z,5.53
2024-01-31T19:33:28.825Z,5.00
2024-01-31T19:35:57.392Z,5.25
2024-01-31T19:38:25.816Z,4.57
2024-01-31T19:40:54.312Z,4.57
2024-01-31T19:43:24.139Z,4.82
2024-01-31T19:45:52.619Z,5.15
2024-01-31T19:48:21.115Z,4.90
2024-01-31T19:50:49.642Z,5.32
2024-01-31T19:53:18.043Z,6.05
2024-01-31T19:55:46.822Z,5.78
2024-01-31T19:58:15.331Z,5.82
2024-01-31T20:00:45.234Z,5.65
2024-01-31T20:03:13.837Z,5.78
2024-01-31T20:05:42.811Z,5.30
2024-01-31T20:08:11.284Z,5.68
2024-01-31T20:10:39.871Z,5.55
2024-01-31T20:13:08.405Z,6.07
2024-01-31T20:15:36.882Z,5.50
2024-01-31T20:18:07.119Z,5.90
2024-01-31T20:20:36.484Z,5.68
2024-01-31T20:23:05.267Z,6.07
2024-01-31T20:25:33.644Z,6.18
2024-01-31T20:28:02.086Z,5.90
2024-01-31T20:30:32.142Z,5.95
2024-01-31T20:33:00.670Z,6.22
2024-01-31T20:35:30.581Z,6.40
2024-01-31T20:37:59.091Z,5.75
2024-01-31T20:40:27.512Z,6.22
2024-01-31T20:42:55.952Z,5.82
2024-01-31T20:45:24.530Z,5.97
2024-01-31T20:47:53.269Z,6.43
2024-01-31T20:50:22.289Z,6.15
2024-01-31T20:52:52.171Z,5.90
2024-01-31T20:55:20.844Z,6.90
2024-01-31T20:57:49.261Z,6.53
2024-01-31T21:00:18.768Z,6.10
2024-01-31T21:02:47.494Z,5.97
2024-01-31T21:05:16.052Z,5.88
2024-01-31T21:07:44.477Z,5.78
2024-01-31T21:10:15.275Z,5.53
2024-01-31T21:12:43.767Z,5.38
2024-01-31T21:15:12.546Z,6.40
2024-01-31T21:17:41.205Z,4.68
2024-01-31T21:20:10.414Z,5.53
2024-01-31T21:22:38.887Z,6.00
2024-01-31T21:25:08.158Z,5.60
2024-01-31T21:27:37.973Z,5.38
2024-01-31T21:30:10.288Z,5.88
2024-01-31T21:32:38.946Z,5.40
2024-01-31T21:35:07.991Z,6.10
2024-01-31T21:37:36.632Z,6.13
2024-01-31T21:40:05.810Z,5.47
2024-01-31T21:42:34.342Z,5.75
2024-01-31T21:45:04.401Z,5.30
2024-01-31T21:47:32.931Z,5.10
2024-01-31T21:50:01.527Z,4.70
2024-01-31T21:52:30.010Z,5.05
2024-01-31T21:54:58.505Z,4.63
2024-01-31T21:57:26.878Z,5.15
2024-01-31T21:59:58.405Z,5.45
2024-01-31T22:02:28.310Z,4.68
2024-01-31T22:04:56.762Z,5.40
2024-01-31T22:07:25.333Z,5.30
2024-01-31T22:09:53.749Z,5.75
2024-01-31T22:12:22.585Z,4.72
2024-01-31T22:14:51.087Z,4.97
2024-01-31T22:17:19.496Z,4.47
2024-01-31T22:19:49.379Z,5.28
2024-01-31T22:22:17.852Z,5.25
2024-01-31T22:24:46.250Z,5.55
2024-01-31T22:27:14.840Z,5.35
2024-01-31T22:29:43.415Z,5.35
2024-01-31T22:32:11.829Z,5.95
2024-01-31T22:34:41.022Z,5.82
2024-01-31T22:37:10.932Z,5.55
2024-01-31T22:39:40.404Z,5.50
2024-01-31T22:42:09.228Z,6.15
2024-01-31T22:44:37.788Z,5.60
2024-01-31T22:47:06.830Z,5.82
2024-01-31T22:49:35.474Z,4.93
2024-01-31T22:52:04.224Z,5.63
2024-01-31T22:54:34.568Z,5.47
2024-01-31T22:57:03.158Z,5.20
2024-01-31T22:59:31.638Z,5.32
2024-01-31T23:02:00.078Z,4.90
2024-01-31T23:04:28.654Z,6.03
2024-01-31T23:06:57.321Z,6.00
2024-01-31T23:09:25.999Z,5.70
2024-01-31T23:11:55.806Z,6.10
2024-01-31T23:14:24.293Z,6.00
2024-01-31T23:16:52.673Z,5.20
2024-01-31T23:19:21.408Z,5.30
2024-01-31T23:21:49.933Z,6.32
2024-01-31T23:24:18.471Z,5.80
2024-01-31T23:26:46.930Z,5.82
2024-01-31T23:29:17.233Z,5.28
2024-01-31T23:31:46.204Z,6.07
2024-01-31T23:34:14.855Z,6.35
2024-01-31T23:36:45.104Z,6.85
2024-01-31T23:39:13.762Z,6.30
2024-01-31T23:41:42.525Z,6.03
2024-01-31T23:44:11.008Z,7.07
2024-01-31T23:46:40.862Z,6.03
2024-01-31T23:49:09.423Z,6.57
2024-01-31T23:51:37.913Z,6.65
2024-01-31T23:54:06.540Z,7.10
2024-01-31T23:56:35.027Z,6.50
2024-01-31T23:59:03.506Z,6.80
